createdAt,value
2022-09-05T00:01:55.985Z,101901.72
2022-09-05T00:05:00.804Z,101899.70
2022-09-05T00:08:12.488Z,101893.02
2022-09-05T00:11:42.962Z,101894.06
2022-09-05T00:15:14.738Z,101896.13
2022-09-05T00:22:10.845Z,101895.05
2022-09-05T00:24:21.929Z,101898.57
2022-09-05T00:25:28.223Z,101898.23
2022-09-05T00:28:38.642Z,101901.22
2022-09-05T00:31:55.647Z,101903.19
2022-09-05T00:35:39.717Z,101903.33
2022-09-05T00:38:36.417Z,101898.90
2022-09-05T00:41:22.994Z,101904.98
2022-09-05T00:44:12.761Z,101911.26
2022-09-05T00:47:14.175Z,101908.62
2022-09-05T00:50:03.703Z,101905.96
2022-09-05T00:53:06.523Z,101909.20
2022-09-05T00:56:21.162Z,101907.27
2022-09-05T00:59:34.599Z,101910.66
2022-09-05T01:02:32.090Z,101910.16
2022-09-05T01:05:59.609Z,101910.81
2022-09-05T01:09:07.717Z,101910.59
2022-09-05T01:12:27.932Z,101913.53
2022-09-05T01:15:24.458Z,101911.10
2022-09-05T01:18:37.682Z,101915.71
2022-09-05T01:21:40.669Z,101913.41
2022-09-05T01:25:12.208Z,101913.02
2022-09-05T01:29:14.990Z,101911.11
2022-09-05T01:31:36.502Z,101910.67
2022-09-05T01:34:38.122Z,101911.36
2022-09-05T01:37:33.355Z,101915.02
2022-09-05T01:40:35.983Z,101915.52
2022-09-05T01:43:59.620Z,101915.69
2022-09-05T01:47:28.458Z,101919.95
2022-09-05T01:50:34.982Z,101918.47
2022-09-05T01:53:51.046Z,101916.63
2022-09-05T01:57:12.227Z,101918.67
2022-09-05T02:00:16.430Z,101920.08
2022-09-05T02:03:01.949Z,101921.45
2022-09-05T02:06:35.042Z,101918.43
2022-09-05T02:09:52.616Z,101919.23
2022-09-05T02:12:58.513Z,101922.90
2022-09-05T02:16:01.490Z,101926.29
2022-09-05T02:19:05.469Z,101927.04
2022-09-05T02:22:14.495Z,101929.58
2022-09-05T02:26:00.491Z,101930.52
2022-09-05T02:28:24.679Z,101928.08
2022-09-05T02:31:24.619Z,101928.34
2022-09-05T02:34:12.727Z,101928.55
2022-09-05T02:37:14.534Z,101934.52
2022-09-05T02:45:12.502Z,101932.45
2022-09-05T02:45:14.816Z,101933.02
2022-09-05T02:47:02.545Z,101929.99
2022-09-05T02:54:27.800Z,101929.88
2022-09-05T02:57:35.238Z,101933.20
2022-09-05T02:57:37.222Z,101929.60
2022-09-05T03:00:19.056Z,101932.69
2022-09-05T03:03:13.792Z,101938.11
2022-09-05T03:06:34.545Z,101934.26
2022-09-05T03:09:48.146Z,101934.37
2022-09-05T03:13:04.449Z,101931.40
2022-09-05T03:16:04.675Z,101939.66
2022-09-05T03:19:09.076Z,101938.36
2022-09-05T03:22:31.663Z,101937.70
2022-09-05T03:25:41.259Z,101937.61
2022-09-05T03:28:51.894Z,101939.59
2022-09-05T03:31:46.207Z,101938.08
2022-09-05T03:34:46.914Z,101941.02
2022-09-05T03:37:46.745Z,101944.08
2022-09-05T03:40:51.238Z,101942.74
2022-09-05T03:43:54.916Z,101945.51
2022-09-05T03:46:40.076Z,101949.42
2022-09-05T03:55:44.049Z,101949.07
2022-09-05T03:57:15.051Z,101952.56
2022-09-05T03:57:16.673Z,101952.52
2022-09-05T04:00:09.682Z,101951.27
2022-09-05T04:08:11.591Z,101953.15
2022-09-05T04:08:24.099Z,101959.54
2022-09-05T04:09:51.453Z,101962.02
2022-09-05T04:12:58.240Z,101963.83
2022-09-05T04:16:00.281Z,101965.92
2022-09-05T04:19:10.766Z,101964.13
2022-09-05T04:22:27.235Z,101966.94
2022-09-05T04:25:17.566Z,101969.18
2022-09-05T04:28:22.460Z,101973.52
2022-09-05T04:31:16.695Z,101970.84
2022-09-05T04:34:24.582Z,101975.34
2022-09-05T04:37:11.989Z,101974.14
2022-09-05T04:39:57.007Z,101978.19
2022-09-05T04:42:42.538Z,101985.59
2022-09-05T04:45:34.009Z,101986.55
2022-09-05T04:48:42.674Z,101991.27
2022-09-05T04:52:16.791Z,101993.73
2022-09-05T04:55:24.043Z,101990.66
2022-09-05T04:59:08.994Z,101990.58
2022-09-05T05:06:08.909Z,101990.52
2022-09-05T05:06:13.726Z,101992.91
2022-09-05T05:08:37.869Z,101993.25
2022-09-05T05:17:12.905Z,101995.35
2022-09-05T05:18:13.756Z,102001.02
2022-09-05T05:18:39.553Z,102009.52
2022-09-05T05:21:30.664Z,102011.46
2022-09-05T05:24:21.946Z,102012.23
2022-09-05T05:27:10.815Z,102011.95
2022-09-05T05:29:58.999Z,102010.01
2022-09-05T05:32:49.241Z,102010.41
2022-09-05T05:35:38.528Z,102013.98
2022-09-05T05:38:53.619Z,102013.20
2022-09-05T05:41:50.544Z,102012.45
2022-09-05T05:44:38.379Z,102019.55
2022-09-05T05:47:41.873Z,102018.51
2022-09-05T05:50:45.334Z,102021.17
2022-09-05T05:53:44.441Z,102019.48
2022-09-05T05:56:49.771Z,102022.36
2022-09-05T05:59:56.551Z,102022.41
2022-09-05T06:03:25.691Z,102024.39
2022-09-05T06:06:23.170Z,102027.04
2022-09-05T06:14:21.943Z,102028.09
2022-09-05T06:14:55.458Z,102030.91
2022-09-05T06:16:19.384Z,102026.59
2022-09-05T06:19:14.049Z,102023.92
2022-09-05T06:22:21.438Z,102024.02
2022-09-05T06:25:29.086Z,102023.01
2022-09-05T06:28:27.823Z,102023.52
2022-09-05T06:31:31.242Z,102023.91
2022-09-05T06:34:35.736Z,102025.35
2022-09-05T06:37:39.579Z,102024.80
2022-09-05T06:40:35.400Z,102020.70
2022-09-05T06:43:29.631Z,102022.80
2022-09-05T06:46:55.160Z,102024.71
2022-09-05T06:50:26.768Z,102024.81
2022-09-05T06:53:32.347Z,102025.43
2022-09-05T06:56:55.554Z,102021.98
2022-09-05T07:00:18.169Z,102025.54
2022-09-05T07:03:22.765Z,102025.39
2022-09-05T07:06:20.573Z,102025.48
2022-09-05T07:09:30.478Z,102029.95
2022-09-05T07:12:53.739Z,102028.72
2022-09-05T07:15:43.354Z,102034.40
2022-09-05T07:18:40.900Z,102036.73
2022-09-05T07:21:35.710Z,102044.77
2022-09-05T07:24:53.324Z,102041.23
2022-09-05T07:27:49.852Z,102049.74
2022-09-05T07:30:56.239Z,102049.80
2022-09-05T07:33:45.091Z,102056.27
2022-09-05T07:36:37.659Z,102054.98
2022-09-05T07:39:34.252Z,102065.11
2022-09-05T07:42:27.480Z,102070.54
2022-09-05T07:45:22.072Z,102069.92
2022-09-05T07:48:23.025Z,102073.52
2022-09-05T07:54:21.974Z,102072.39
2022-09-05T07:57:08.677Z,102072.34
2022-09-05T07:57:51.785Z,102069.15
2022-09-05T08:00:38.947Z,102068.48
2022-09-05T08:03:31.344Z,102070.66
2022-09-05T08:07:25.644Z,102071.56
2022-09-05T08:10:06.719Z,102069.98
2022-09-05T08:13:23.724Z,102071.33
2022-09-05T08:16:13.076Z,102070.72
2022-09-05T08:19:41.035Z,102066.23
2022-09-05T08:22:35.410Z,102053.22
2022-09-05T08:26:00.915Z,102051.96
2022-09-05T08:29:13.169Z,102050.66
2022-09-05T08:32:13.589Z,102051.33
2022-09-05T08:35:31.151Z,102047.30
2022-09-05T08:38:18.893Z,102045.77
2022-09-05T08:41:13.139Z,102040.48
2022-09-05T08:46:37.858Z,102035.10
2022-09-05T08:47:48.603Z,102031.63
2022-09-05T08:50:53.145Z,102038.10
2022-09-05T08:54:09.367Z,102028.89
2022-09-05T08:57:09.255Z,102024.09
2022-09-05T09:00:20.080Z,102020.00
2022-09-05T09:03:13.714Z,102021.67
2022-09-05T09:06:37.586Z,102018.67
2022-09-05T09:09:54.819Z,102019.80
2022-09-05T09:13:24.439Z,102015.06
2022-09-05T09:16:24.615Z,102014.83
2022-09-05T09:19:18.251Z,102011.60
2022-09-05T09:22:48.593Z,102012.37
2022-09-05T09:26:17.158Z,102014.64
2022-09-05T09:29:08.939Z,102011.44
2022-09-05T09:32:09.601Z,102015.55
2022-09-05T09:35:17.130Z,102014.30
2022-09-05T09:38:28.111Z,102010.45
2022-09-05T09:41:54.810Z,102003.98
2022-09-05T09:44:55.572Z,102001.58
2022-09-05T09:48:18.783Z,101994.98
2022-09-05T09:51:09.600Z,101992.58
2022-09-05T09:54:09.903Z,101986.80
2022-09-05T09:57:13.873Z,101988.42
2022-09-05T10:00:07.756Z,101982.00
2022-09-05T10:05:33.887Z,101983.12
2022-09-05T10:10:46.048Z,101971.45
2022-09-05T10:10:50.236Z,101977.81
2022-09-05T10:13:35.323Z,101980.82
2022-09-05T10:16:27.157Z,101977.27
2022-09-05T10:22:39.406Z,101972.31
2022-09-05T10:26:02.142Z,101966.38
2022-09-05T10:28:50.211Z,101960.58
2022-09-05T10:35:11.722Z,101960.13
2022-09-05T10:35:21.246Z,101957.10
2022-09-05T10:38:21.516Z,101965.39
2022-09-05T10:41:21.189Z,101959.02
2022-09-05T10:44:12.178Z,101957.83
2022-09-05T10:47:20.179Z,101952.23
2022-09-05T10:50:29.079Z,101947.27
2022-09-05T10:53:43.977Z,101951.84
2022-09-05T10:56:37.806Z,101952.04
2022-09-05T11:02:18.762Z,101948.88
2022-09-05T11:02:46.773Z,101957.13
2022-09-05T11:05:38.267Z,101955.17
2022-09-05T11:08:45.108Z,101958.27
2022-09-05T11:11:41.482Z,101955.58
2022-09-05T11:14:54.057Z,101949.60
2022-09-05T11:17:40.929Z,101947.50
2022-09-05T11:20:45.259Z,101947.92
2022-09-05T11:23:41.325Z,101946.72
2022-09-05T11:27:23.563Z,101944.46
2022-09-05T11:30:30.253Z,101940.52
2022-09-05T11:37:48.683Z,101932.56
2022-09-05T11:39:58.554Z,101937.34
2022-09-05T11:40:28.963Z,101932.37
2022-09-05T11:43:59.050Z,101925.13
2022-09-05T11:47:29.876Z,101924.12
2022-09-05T11:50:43.572Z,101926.18
2022-09-05T11:53:34.963Z,101928.33
2022-09-05T11:56:45.761Z,101929.50
2022-09-05T12:00:31.339Z,101927.52
2022-09-05T12:04:12.963Z,101924.30
2022-09-05T12:07:30.057Z,101922.50
2022-09-05T12:10:39.853Z,101920.67
2022-09-05T12:13:51.514Z,101922.68
2022-09-05T12:16:46.422Z,101917.62
2022-09-05T12:19:56.985Z,101911.03
2022-09-05T12:23:07.402Z,101909.48
2022-09-05T12:27:38.104Z,101907.47
2022-09-05T12:29:46.943Z,101896.98
2022-09-05T12:36:01.209Z,101899.84
2022-09-05T12:38:56.933Z,101901.94
2022-09-05T12:41:32.124Z,101899.93
2022-09-05T12:44:34.721Z,101903.10
2022-09-05T12:46:26.255Z,101903.40
2022-09-05T12:49:23.920Z,101903.27
2022-09-05T12:52:44.737Z,101899.05
2022-09-05T12:55:35.364Z,101894.58
2022-09-05T13:02:57.087Z,101894.07
2022-09-05T13:03:06.076Z,101894.61
2022-09-05T13:05:02.107Z,101894.64
2022-09-05T13:07:58.351Z,101898.03
2022-09-05T13:14:24.300Z,101891.10
2022-09-05T13:14:59.081Z,101893.02
2022-09-05T13:17:10.512Z,101898.05
2022-09-05T13:19:56.083Z,101897.84
2022-09-05T13:22:48.595Z,101891.27
2022-09-05T13:25:37.285Z,101882.09
2022-09-05T13:28:35.296Z,101883.80
2022-09-05T13:38:05.951Z,101872.68
2022-09-05T13:38:11.623Z,101880.92
2022-09-05T13:38:37.802Z,101869.52
2022-09-05T13:41:48.919Z,101868.79
2022-09-05T13:44:46.425Z,101867.20
2022-09-05T13:47:31.373Z,101862.72
2022-09-05T13:50:34.252Z,101859.55
2022-09-05T13:53:19.421Z,101853.05
2022-09-05T13:56:23.989Z,101850.92
2022-09-05T13:59:15.025Z,101854.15
2022-09-05T14:02:27.680Z,101850.25
2022-09-05T14:05:25.241Z,101843.48
2022-09-05T14:08:33.692Z,101840.25
2022-09-05T14:11:51.381Z,101843.04
2022-09-05T14:15:11.363Z,101838.28
2022-09-05T14:18:20.169Z,101836.09
2022-09-05T14:21:18.279Z,101833.61
2022-09-05T14:24:28.204Z,101838.21
2022-09-05T14:27:23.888Z,101829.90
2022-09-05T14:32:33.939Z,101827.66
2022-09-05T14:37:51.083Z,101829.87
2022-09-05T14:37:53.459Z,101831.97
2022-09-05T14:40:30.599Z,101822.61
2022-09-05T14:43:01.215Z,101821.39
2022-09-05T14:45:31.521Z,101819.99
2022-09-05T14:48:20.465Z,101822.29
2022-09-05T14:50:49.369Z,101821.02
2022-09-05T14:56:39.908Z,101808.22
2022-09-05T15:02:49.443Z,101805.06
2022-09-05T15:02:55.254Z,101808.75
2022-09-05T15:05:13.358Z,101805.77
2022-09-05T15:07:55.192Z,101803.97
2022-09-05T15:12:15.380Z,101804.65
2022-09-05T15:13:26.230Z,101801.83
2022-09-05T15:16:07.659Z,101797.91
2022-09-05T15:18:48.245Z,101796.63
2022-09-05T15:21:34.099Z,101794.67
2022-09-05T15:24:19.248Z,101797.66
2022-09-05T15:26:54.342Z,101799.09
2022-09-05T15:29:27.944Z,101794.61
2022-09-05T15:32:18.066Z,101794.25
2022-09-05T15:34:45.755Z,101798.86
2022-09-05T15:37:48.100Z,101795.48
2022-09-05T15:40:23.090Z,101789.98
2022-09-05T15:42:56.781Z,101788.36
2022-09-05T15:45:33.037Z,101788.86
2022-09-05T15:48:15.374Z,101781.91
2022-09-05T15:50:57.079Z,101779.75
2022-09-05T15:53:31.612Z,101778.66
2022-09-05T15:56:17.175Z,101777.40
2022-09-05T15:58:55.209Z,101778.66
2022-09-05T16:01:31.188Z,101774.05
2022-09-05T16:10:04.135Z,101779.36
2022-09-05T16:10:36.458Z,101780.60
2022-09-05T16:10:50.976Z,101778.24
2022-09-05T16:12:51.335Z,101776.56
2022-09-05T16:19:44.639Z,101771.76
2022-09-05T16:23:15.645Z,101769.45
2022-09-05T16:23:31.776Z,101770.11
2022-09-05T16:24:16.164Z,101771.66
2022-09-05T16:26:50.515Z,101774.66
2022-09-05T16:29:26.448Z,101773.59
2022-09-05T16:32:05.508Z,101773.38
2022-09-05T16:34:46.266Z,101774.59
2022-09-05T16:37:25.819Z,101771.39
2022-09-05T16:40:09.015Z,101769.56
2022-09-05T16:42:54.508Z,101767.94
2022-09-05T16:45:40.808Z,101764.33
2022-09-05T16:48:08.770Z,101763.22
2022-09-05T16:50:50.077Z,101766.01
2022-09-05T16:53:32.900Z,101764.54
2022-09-05T16:56:24.759Z,101769.42
2022-09-05T16:58:58.899Z,101762.77
2022-09-05T17:02:06.106Z,101761.48
2022-09-05T17:05:05.021Z,101763.89
2022-09-05T17:07:49.649Z,101759.73
2022-09-05T17:10:26.102Z,101761.76
2022-09-05T17:12:55.680Z,101763.63
2022-09-05T17:15:29.570Z,101767.27
2022-09-05T17:18:18.993Z,101770.76
2022-09-05T17:20:55.840Z,101770.13
2022-09-05T17:29:23.322Z,101774.64
2022-09-05T17:29:30.093Z,101769.92
2022-09-05T17:32:47.349Z,101769.45
2022-09-05T17:35:43.925Z,101767.92
2022-09-05T17:38:29.787Z,101766.92
2022-09-05T17:41:07.973Z,101760.08
2022-09-05T17:43:38.747Z,101765.65
2022-09-05T17:46:18.822Z,101769.60
2022-09-05T17:48:46.395Z,101767.20
2022-09-05T17:51:27.866Z,101773.48
2022-09-05T17:54:08.516Z,101778.66
2022-09-05T17:56:46.507Z,101781.76
2022-09-05T17:59:17.426Z,101780.17
2022-09-05T18:02:03.606Z,101782.39
2022-09-05T18:04:51.689Z,101782.77
2022-09-05T18:07:19.649Z,101785.29
2022-09-05T18:10:05.927Z,101788.39
2022-09-05T18:13:12.495Z,101788.10
2022-09-05T18:15:40.205Z,101788.17
2022-09-05T18:18:18.434Z,101793.73
2022-09-05T18:21:21.416Z,101797.91
2022-09-05T18:24:12.191Z,101804.65
2022-09-05T18:26:44.878Z,101806.59
2022-09-05T18:29:31.093Z,101807.70
2022-09-05T18:32:12.760Z,101816.06
2022-09-05T18:34:43.093Z,101815.07
2022-09-05T18:37:36.189Z,101812.86
2022-09-05T18:40:09.504Z,101816.41
2022-09-05T18:42:48.584Z,101811.88
2022-09-05T18:45:28.405Z,101815.19
2022-09-05T18:48:02.968Z,101816.88
2022-09-05T18:50:35.357Z,101816.16
2022-09-05T18:53:12.845Z,101819.50
2022-09-05T18:56:12.182Z,101818.70
2022-09-05T18:59:09.978Z,101814.98
2022-09-05T19:01:48.846Z,101816.67
2022-09-05T19:04:40.838Z,101818.36
2022-09-05T19:07:19.319Z,101818.30
2022-09-05T19:10:00.476Z,101819.95
2022-09-05T19:12:42.876Z,101821.61
2022-09-05T19:15:24.873Z,101819.05
2022-09-05T19:18:26.997Z,101819.63
2022-09-05T19:21:16.743Z,101824.60
2022-09-05T19:23:55.698Z,101820.91
2022-09-05T19:26:24.796Z,101819.90
2022-09-05T19:36:48.765Z,101809.17
2022-09-05T19:36:49.566Z,101814.59
2022-09-05T19:37:23.917Z,101818.20
2022-09-05T19:37:44.678Z,101818.91
2022-09-05T19:47:24.879Z,101815.29
2022-09-05T19:47:42.047Z,101815.73
2022-09-05T19:47:46.864Z,101815.60
2022-09-05T19:49:11.287Z,101816.40
2022-09-05T19:51:43.490Z,101812.91
2022-09-05T19:54:27.186Z,101811.72
2022-09-05T19:57:01.189Z,101807.70
2022-09-05T19:59:42.922Z,101805.30
2022-09-05T20:02:19.915Z,101810.98
2022-09-05T20:04:53.132Z,101808.04
2022-09-05T20:07:23.993Z,101808.64
2022-09-05T20:09:53.430Z,101806.54
2022-09-05T20:12:30.184Z,101806.64
2022-09-05T20:15:36.085Z,101805.04
2022-09-05T20:18:19.619Z,101808.39
2022-09-05T20:20:56.471Z,101808.36
2022-09-05T20:23:28.245Z,101805.93
2022-09-05T20:25:58.070Z,101804.10
2022-09-05T20:28:30.880Z,101807.20
2022-09-05T20:31:01.954Z,101808.23
2022-09-05T20:33:37.118Z,101809.64
2022-09-05T20:43:11.087Z,101805.27
2022-09-05T20:43:12.031Z,101808.42
2022-09-05T20:43:31.287Z,101800.02
2022-09-05T20:44:51.040Z,101800.36
2022-09-05T20:54:07.982Z,101799.14
2022-09-05T20:54:14.519Z,101797.98
2022-09-05T20:54:22.373Z,101795.71
2022-09-05T20:56:19.064Z,101797.18
2022-09-05T20:58:50.323Z,101797.31
2022-09-05T21:01:23.090Z,101798.23
2022-09-05T21:04:05.729Z,101801.27
2022-09-05T21:06:35.487Z,101796.34
2022-09-05T21:09:17.760Z,101795.64
2022-09-05T21:11:59.913Z,101800.29
2022-09-05T21:14:29.260Z,101797.93
2022-09-05T21:17:15.761Z,101804.20
2022-09-05T21:19:53.463Z,101803.95
2022-09-05T21:22:39.402Z,101805.49
2022-09-05T21:25:20.408Z,101807.41
2022-09-05T21:27:56.352Z,101808.63
2022-09-05T21:30:33.508Z,101813.94
2022-09-05T21:33:18.485Z,101811.20
2022-09-05T21:35:50.950Z,101809.23
2022-09-05T21:38:32.303Z,101811.83
2022-09-05T21:41:02.515Z,101816.20
2022-09-05T21:47:39.903Z,101814.56
2022-09-05T21:47:41.630Z,101815.92
2022-09-05T21:49:09.095Z,101813.39
2022-09-05T21:51:38.803Z,101812.86
2022-09-05T21:59:18.703Z,101815.61
2022-09-05T21:59:22.087Z,101815.73
2022-09-05T21:59:56.013Z,101817.73
2022-09-05T22:02:32.643Z,101822.10
2022-09-05T22:05:03.294Z,101820.79
2022-09-05T22:07:35.681Z,101821.77
2022-09-05T22:10:05.737Z,101826.35
2022-09-05T22:12:36.036Z,101828.44
2022-09-05T22:15:28.191Z,101827.61
2022-09-05T22:17:59.682Z,101834.02
2022-09-05T22:20:46.124Z,101831.11
2022-09-05T22:23:21.294Z,101824.80
2022-09-05T22:25:48.954Z,101829.54
2022-09-05T22:28:20.661Z,101829.63
2022-09-05T22:30:56.225Z,101826.17
2022-09-05T22:33:25.162Z,101827.18
2022-09-05T22:35:52.823Z,101821.79
2022-09-05T22:38:21.157Z,101819.23
2022-09-05T22:40:49.355Z,101820.56
2022-09-05T22:43:17.244Z,101826.64
2022-09-05T22:45:44.988Z,101819.21
2022-09-05T22:48:14.653Z,101818.13
2022-09-05T22:50:43.229Z,101808.70
2022-09-05T22:53:11.244Z,101809.36
2022-09-05T22:55:42.936Z,101811.36
2022-09-05T22:58:13.320Z,101813.16
2022-09-05T23:00:41.904Z,101813.74
2022-09-05T23:03:09.614Z,101813.73
2022-09-05T23:05:37.427Z,101813.52
2022-09-05T23:08:06.843Z,101812.11
2022-09-05T23:10:36.730Z,101809.48
2022-09-05T23:13:07.285Z,101807.60
2022-09-05T23:15:36.060Z,101811.04
2022-09-05T23:18:04.483Z,101810.83
2022-09-05T23:20:33.568Z,101810.40
2022-09-05T23:23:06.483Z,101805.25
2022-09-05T23:25:35.670Z,101807.77
2022-09-05T23:28:09.885Z,101804.10
2022-09-05T23:30:39.243Z,101802.39
2022-09-05T23:33:09.095Z,101804.39
2022-09-05T23:35:37.646Z,101804.09
2022-09-05T23:38:10.427Z,101805.80
2022-09-05T23:40:39.167Z,101808.84
2022-09-05T23:43:07.661Z,101809.90
2022-09-05T23:45:35.930Z,101806.05
2022-09-05T23:48:03.835Z,101803.56
2022-09-05T23:50:31.576Z,101799.84
2022-09-05T23:53:04.367Z,101801.98
2022-09-05T23:55:32.844Z,101799.70
2022-09-05T23:58:00.991Z,101797.31
